sensor_id;sensor_type;location;lat;lon;timestamp;pressure;altitude;pressure_sealevel;temperature
12854;BMP180;6495;51.808;7.478;2023-02-23T00:02:01;100716.00;;;11.10
12854;BMP180;6495;51.808;7.478;2023-02-23T00:04:32;100723.00;;;11.20
12854;BMP180;6495;51.808;7.478;2023-02-23T00:07:01;100710.00;;;11.20
12854;BMP180;6495;51.808;7.478;2023-02-23T00:09:30;100718.00;;;11.20
12854;BMP180;6495;51.808;7.478;2023-02-23T00:12:04;100723.00;;;11.10
12854;BMP180;6495;51.808;7.478;2023-02-23T00:14:37;100722.00;;;11.10
12854;BMP180;6495;51.808;7.478;2023-02-23T00:17:06;100718.00;;;11.10
12854;BMP180;6495;51.808;7.478;2023-02-23T00:19:40;100713.00;;;11.10
12854;BMP180;6495;51.808;7.478;2023-02-23T00:22:09;100716.00;;;11.10
12854;BMP180;6495;51.808;7.478;2023-02-23T00:24:38;100707.00;;;11.10
12854;BMP180;6495;51.808;7.478;2023-02-23T00:27:08;100723.00;;;11.10
12854;BMP180;6495;51.808;7.478;2023-02-23T00:29:37;100717.00;;;11.10
12854;BMP180;6495;51.808;7.478;2023-02-23T00:32:07;100707.00;;;11.10
12854;BMP180;6495;51.808;7.478;2023-02-23T00:34:36;100712.00;;;11.10
12854;BMP180;6495;51.808;7.478;2023-02-23T00:37:04;100713.00;;;11.10
12854;BMP180;6495;51.808;7.478;2023-02-23T00:39:33;100710.00;;;11.10
12854;BMP180;6495;51.808;7.478;2023-02-23T00:42:01;100712.00;;;11.10
12854;BMP180;6495;51.808;7.478;2023-02-23T00:44:30;100701.00;;;11.10
12854;BMP180;6495;51.808;7.478;2023-02-23T00:47:01;100704.00;;;11.10
12854;BMP180;6495;51.808;7.478;2023-02-23T00:49:29;100702.00;;;11.10
12854;BMP180;6495;51.808;7.478;2023-02-23T00:51:58;100704.00;;;11.10
12854;BMP180;6495;51.808;7.478;2023-02-23T00:54:26;100707.00;;;11.00
12854;BMP180;6495;51.808;7.478;2023-02-23T00:56:54;100705.00;;;11.10
12854;BMP180;6495;51.808;7.478;2023-02-23T00:59:22;100704.00;;;11.10
12854;BMP180;6495;51.808;7.478;2023-02-23T01:01:51;100708.00;;;11.10
12854;BMP180;6495;51.808;7.478;2023-02-23T01:04:21;100712.00;;;11.10
12854;BMP180;6495;51.808;7.478;2023-02-23T01:06:49;100712.00;;;11.10
12854;BMP180;6495;51.808;7.478;2023-02-23T01:09:18;100715.00;;;11.00
12854;BMP180;6495;51.808;7.478;2023-02-23T01:11:55;100710.00;;;11.00
12854;BMP180;6495;51.808;7.478;2023-02-23T01:14:23;100700.00;;;11.00
12854;BMP180;6495;51.808;7.478;2023-02-23T01:16:52;100711.00;;;11.10
12854;BMP180;6495;51.808;7.478;2023-02-23T01:19:22;100717.00;;;11.10
12854;BMP180;6495;51.808;7.478;2023-02-23T01:21:51;100710.00;;;11.10
12854;BMP180;6495;51.808;7.478;2023-02-23T01:24:19;100714.00;;;11.10
12854;BMP180;6495;51.808;7.478;2023-02-23T01:26:47;100714.00;;;11.10
12854;BMP180;6495;51.808;7.478;2023-02-23T01:29:16;100711.00;;;11.10
12854;BMP180;6495;51.808;7.478;2023-02-23T01:31:48;100718.00;;;11.10
12854;BMP180;6495;51.808;7.478;2023-02-23T01:34:19;100707.00;;;11.10
12854;BMP180;6495;51.808;7.478;2023-02-23T01:36:50;100712.00;;;11.10
12854;BMP180;6495;51.808;7.478;2023-02-23T01:39:19;100705.00;;;11.10
12854;BMP180;6495;51.808;7.478;2023-02-23T01:41:48;100705.00;;;11.00
12854;BMP180;6495;51.808;7.478;2023-02-23T01:45:11;100715.00;;;11.10
12854;BMP180;6495;51.808;7.478;2023-02-23T01:47:44;100713.00;;;10.90
12854;BMP180;6495;51.808;7.478;2023-02-23T01:50:14;100713.00;;;10.90
12854;BMP180;6495;51.808;7.478;2023-02-23T01:52:49;100708.00;;;10.90
12854;BMP180;6495;51.808;7.478;2023-02-23T01:55:21;100707.00;;;10.90
12854;BMP180;6495;51.808;7.478;2023-02-23T01:58:00;100702.00;;;10.90
12854;BMP180;6495;51.808;7.478;2023-02-23T02:00:29;100706.00;;;10.90
12854;BMP180;6495;51.808;7.478;2023-02-23T02:03:08;100709.00;;;10.90
12854;BMP180;6495;51.808;7.478;2023-02-23T02:05:40;100706.00;;;11.00
12854;BMP180;6495;51.808;7.478;2023-02-23T02:08:11;100702.00;;;10.90
12854;BMP180;6495;51.808;7.478;2023-02-23T02:10:39;100709.00;;;10.90
12854;BMP180;6495;51.808;7.478;2023-02-23T02:13:19;100705.00;;;10.90
12854;BMP180;6495;51.808;7.478;2023-02-23T02:16:31;100709.00;;;10.90
12854;BMP180;6495;51.808;7.478;2023-02-23T02:22:45;100710.00;;;10.90
12854;BMP180;6495;51.808;7.478;2023-02-23T02:25:46;100701.00;;;10.90
12854;BMP180;6495;51.808;7.478;2023-02-23T02:28:45;100707.00;;;10.90
12854;BMP180;6495;51.808;7.478;2023-02-23T02:32:09;100712.00;;;10.90
12854;BMP180;6495;51.808;7.478;2023-02-23T02:35:04;100699.00;;;10.80
12854;BMP180;6495;51.808;7.478;2023-02-23T02:37:59;100695.00;;;10.80
12854;BMP180;6495;51.808;7.478;2023-02-23T02:40:41;100693.00;;;10.70
12854;BMP180;6495;51.808;7.478;2023-02-23T02:43:32;100689.00;;;10.70
12854;BMP180;6495;51.808;7.478;2023-02-23T02:46:11;100682.00;;;10.60
12854;BMP180;6495;51.808;7.478;2023-02-23T02:48:53;100686.00;;;10.60
12854;BMP180;6495;51.808;7.478;2023-02-23T02:51:30;100693.00;;;10.60
12854;BMP180;6495;51.808;7.478;2023-02-23T02:54:12;100698.00;;;10.50
12854;BMP180;6495;51.808;7.478;2023-02-23T02:56:43;100680.00;;;10.50
12854;BMP180;6495;51.808;7.478;2023-02-23T02:59:18;100684.00;;;10.50
12854;BMP180;6495;51.808;7.478;2023-02-23T03:02:05;100679.00;;;10.50
12854;BMP180;6495;51.808;7.478;2023-02-23T03:04:51;100687.00;;;10.50
12854;BMP180;6495;51.808;7.478;2023-02-23T03:07:45;100688.00;;;10.50
12854;BMP180;6495;51.808;7.478;2023-02-23T03:10:46;100684.00;;;10.50
12854;BMP180;6495;51.808;7.478;2023-02-23T03:13:50;100691.00;;;10.40
12854;BMP180;6495;51.808;7.478;2023-02-23T03:16:50;100694.00;;;10.40
12854;BMP180;6495;51.808;7.478;2023-02-23T03:19:47;100692.00;;;10.40
12854;BMP180;6495;51.808;7.478;2023-02-23T03:22:41;100695.00;;;10.40
12854;BMP180;6495;51.808;7.478;2023-02-23T03:25:47;100689.00;;;10.40
12854;BMP180;6495;51.808;7.478;2023-02-23T03:28:41;100699.00;;;10.40
12854;BMP180;6495;51.808;7.478;2023-02-23T03:31:39;100696.00;;;10.50
12854;BMP180;6495;51.808;7.478;2023-02-23T03:34:35;100696.00;;;10.50
12854;BMP180;6495;51.808;7.478;2023-02-23T03:37:30;100701.00;;;10.50
12854;BMP180;6495;51.808;7.478;2023-02-23T03:40:22;100697.00;;;10.50
12854;BMP180;6495;51.808;7.478;2023-02-23T03:43:17;100696.00;;;10.50
12854;BMP180;6495;51.808;7.478;2023-02-23T03:46:08;100690.00;;;10.60
12854;BMP180;6495;51.808;7.478;2023-02-23T03:48:59;100693.00;;;10.60
12854;BMP180;6495;51.808;7.478;2023-02-23T03:51:51;100695.00;;;10.60
12854;BMP180;6495;51.808;7.478;2023-02-23T03:54:44;100690.00;;;10.60
12854;BMP180;6495;51.808;7.478;2023-02-23T03:57:34;100696.00;;;10.60
12854;BMP180;6495;51.808;7.478;2023-02-23T04:00:29;100692.00;;;10.60
12854;BMP180;6495;51.808;7.478;2023-02-23T04:03:18;100702.00;;;10.50
12854;BMP180;6495;51.808;7.478;2023-02-23T04:06:10;100694.00;;;10.50
12854;BMP180;6495;51.808;7.478;2023-02-23T04:09:02;100698.00;;;10.50
12854;BMP180;6495;51.808;7.478;2023-02-23T04:11:55;100699.00;;;10.40
12854;BMP180;6495;51.808;7.478;2023-02-23T04:14:47;100702.00;;;10.50
12854;BMP180;6495;51.808;7.478;2023-02-23T04:17:19;100705.00;;;10.50
12854;BMP180;6495;51.808;7.478;2023-02-23T04:19:56;100702.00;;;10.50
12854;BMP180;6495;51.808;7.478;2023-02-23T04:22:25;100703.00;;;10.50
12854;BMP180;6495;51.808;7.478;2023-02-23T04:24:53;100708.00;;;10.50
12854;BMP180;6495;51.808;7.478;2023-02-23T04:27:21;100709.00;;;10.50
12854;BMP180;6495;51.808;7.478;2023-02-23T04:29:49;100713.00;;;10.50
12854;BMP180;6495;51.808;7.478;2023-02-23T04:32:19;100707.00;;;10.50
12854;BMP180;6495;51.808;7.478;2023-02-23T04:34:47;100708.00;;;10.50
12854;BMP180;6495;51.808;7.478;2023-02-23T04:37:16;100713.00;;;10.50
12854;BMP180;6495;51.808;7.478;2023-02-23T04:39:44;100704.00;;;10.50
12854;BMP180;6495;51.808;7.478;2023-02-23T04:42:16;100711.00;;;10.50
12854;BMP180;6495;51.808;7.478;2023-02-23T04:44:44;100706.00;;;10.50
12854;BMP180;6495;51.808;7.478;2023-02-23T04:47:14;100707.00;;;10.50
12854;BMP180;6495;51.808;7.478;2023-02-23T04:49:44;100709.00;;;10.50
12854;BMP180;6495;51.808;7.478;2023-02-23T04:52:12;100712.00;;;10.50
12854;BMP180;6495;51.808;7.478;2023-02-23T04:54:40;100705.00;;;10.50
12854;BMP180;6495;51.808;7.478;2023-02-23T04:57:09;100710.00;;;10.50
12854;BMP180;6495;51.808;7.478;2023-02-23T04:59:37;100707.00;;;10.50
12854;BMP180;6495;51.808;7.478;2023-02-23T05:02:06;100706.00;;;10.50
12854;BMP180;6495;51.808;7.478;2023-02-23T05:04:34;100712.00;;;10.50
12854;BMP180;6495;51.808;7.478;2023-02-23T05:07:04;100711.00;;;10.50
12854;BMP180;6495;51.808;7.478;2023-02-23T05:09:32;100712.00;;;10.50
12854;BMP180;6495;51.808;7.478;2023-02-23T05:12:00;100718.00;;;10.50
12854;BMP180;6495;51.808;7.478;2023-02-23T05:14:28;100707.00;;;10.50
12854;BMP180;6495;51.808;7.478;2023-02-23T05:16:57;100716.00;;;10.50
12854;BMP180;6495;51.808;7.478;2023-02-23T05:19:26;100706.00;;;10.50
12854;BMP180;6495;51.808;7.478;2023-02-23T05:21:54;100709.00;;;10.50
12854;BMP180;6495;51.808;7.478;2023-02-23T05:24:24;100721.00;;;10.50
12854;BMP180;6495;51.808;7.478;2023-02-23T05:26:52;100709.00;;;10.50
12854;BMP180;6495;51.808;7.478;2023-02-23T05:29:21;100719.00;;;10.50
12854;BMP180;6495;51.808;7.478;2023-02-23T05:31:49;100722.00;;;10.50
12854;BMP180;6495;51.808;7.478;2023-02-23T05:34:17;100719.00;;;10.50
12854;BMP180;6495;51.808;7.478;2023-02-23T05:36:45;100714.00;;;10.50
12854;BMP180;6495;51.808;7.478;2023-02-23T05:39:14;100721.00;;;10.50
12854;BMP180;6495;51.808;7.478;2023-02-23T05:41:43;100722.00;;;10.50
12854;BMP180;6495;51.808;7.478;2023-02-23T05:44:12;100717.00;;;10.40
12854;BMP180;6495;51.808;7.478;2023-02-23T05:46:41;100721.00;;;10.40
12854;BMP180;6495;51.808;7.478;2023-02-23T05:49:09;100726.00;;;10.40
12854;BMP180;6495;51.808;7.478;2023-02-23T05:51:38;100724.00;;;10.30
12854;BMP180;6495;51.808;7.478;2023-02-23T05:54:06;100721.00;;;10.30
12854;BMP180;6495;51.808;7.478;2023-02-23T05:56:35;100722.00;;;10.30
12854;BMP180;6495;51.808;7.478;2023-02-23T05:59:04;100717.00;;;10.30
12854;BMP180;6495;51.808;7.478;2023-02-23T06:01:33;100731.00;;;10.30
12854;BMP180;6495;51.808;7.478;2023-02-23T06:04:01;100725.00;;;10.30
12854;BMP180;6495;51.808;7.478;2023-02-23T06:06:32;100725.00;;;10.30
12854;BMP180;6495;51.808;7.478;2023-02-23T06:09:00;100720.00;;;10.30
12854;BMP180;6495;51.808;7.478;2023-02-23T06:11:29;100727.00;;;10.30
12854;BMP180;6495;51.808;7.478;2023-02-23T06:13:58;100720.00;;;10.20
12854;BMP180;6495;51.808;7.478;2023-02-23T06:16:27;100723.00;;;10.20
12854;BMP180;6495;51.808;7.478;2023-02-23T06:18:55;100730.00;;;10.20
12854;BMP180;6495;51.808;7.478;2023-02-23T06:21:24;100732.00;;;10.20
12854;BMP180;6495;51.808;7.478;2023-02-23T06:23:52;100733.00;;;10.20
12854;BMP180;6495;51.808;7.478;2023-02-23T06:26:20;100736.00;;;10.20
12854;BMP180;6495;51.808;7.478;2023-02-23T06:28:48;100745.00;;;10.20
12854;BMP180;6495;51.808;7.478;2023-02-23T06:31:16;100738.00;;;10.20
12854;BMP180;6495;51.808;7.478;2023-02-23T06:33:46;100745.00;;;10.20
12854;BMP180;6495;51.808;7.478;2023-02-23T06:36:15;100742.00;;;10.10
12854;BMP180;6495;51.808;7.478;2023-02-23T06:38:43;100755.00;;;10.10
12854;BMP180;6495;51.808;7.478;2023-02-23T06:41:12;100746.00;;;10.10
12854;BMP180;6495;51.808;7.478;2023-02-23T06:43:40;100759.00;;;10.10
12854;BMP180;6495;51.808;7.478;2023-02-23T06:46:09;100758.00;;;10.10
12854;BMP180;6495;51.808;7.478;2023-02-23T06:48:37;100754.00;;;10.10
12854;BMP180;6495;51.808;7.478;2023-02-23T06:51:07;100756.00;;;10.10
12854;BMP180;6495;51.808;7.478;2023-02-23T06:53:35;100769.00;;;10.10
12854;BMP180;6495;51.808;7.478;2023-02-23T06:56:05;100772.00;;;10.10
12854;BMP180;6495;51.808;7.478;2023-02-23T06:58:33;100774.00;;;10.10
12854;BMP180;6495;51.808;7.478;2023-02-23T07:01:01;100776.00;;;10.10
12854;BMP180;6495;51.808;7.478;2023-02-23T07:03:29;100774.00;;;10.10
12854;BMP180;6495;51.808;7.478;2023-02-23T07:05:57;100772.00;;;10.10
12854;BMP180;6495;51.808;7.478;2023-02-23T07:08:27;100774.00;;;10.10
12854;BMP180;6495;51.808;7.478;2023-02-23T07:10:55;100778.00;;;10.10
12854;BMP180;6495;51.808;7.478;2023-02-23T07:13:24;100779.00;;;10.10
12854;BMP180;6495;51.808;7.478;2023-02-23T07:15:56;100778.00;;;10.00
12854;BMP180;6495;51.808;7.478;2023-02-23T07:18:24;100776.00;;;10.00
12854;BMP180;6495;51.808;7.478;2023-02-23T07:20:53;100784.00;;;10.00
12854;BMP180;6495;51.808;7.478;2023-02-23T07:23:21;100784.00;;;10.00
12854;BMP180;6495;51.808;7.478;2023-02-23T07:25:51;100787.00;;;10.00
12854;BMP180;6495;51.808;7.478;2023-02-23T07:28:19;100789.00;;;10.00
12854;BMP180;6495;51.808;7.478;2023-02-23T07:30:47;100796.00;;;10.00
12854;BMP180;6495;51.808;7.478;2023-02-23T07:33:16;100795.00;;;10.00
12854;BMP180;6495;51.808;7.478;2023-02-23T07:35:44;100795.00;;;10.00
12854;BMP180;6495;51.808;7.478;2023-02-23T07:38:12;100793.00;;;9.90
12854;BMP180;6495;51.808;7.478;2023-02-23T07:40:41;100794.00;;;9.90
12854;BMP180;6495;51.808;7.478;2023-02-23T07:43:10;100802.00;;;9.90
12854;BMP180;6495;51.808;7.478;2023-02-23T07:45:38;100797.00;;;9.90
12854;BMP180;6495;51.808;7.478;2023-02-23T07:48:07;100799.00;;;9.80
12854;BMP180;6495;51.808;7.478;2023-02-23T07:50:35;100810.00;;;9.80
12854;BMP180;6495;51.808;7.478;2023-02-23T07:53:04;100804.00;;;9.80
12854;BMP180;6495;51.808;7.478;2023-02-23T07:55:32;100806.00;;;9.80
12854;BMP180;6495;51.808;7.478;2023-02-23T07:58:00;100812.00;;;9.80
12854;BMP180;6495;51.808;7.478;2023-02-23T08:00:29;100812.00;;;9.80
12854;BMP180;6495;51.808;7.478;2023-02-23T08:02:59;100821.00;;;9.70
12854;BMP180;6495;51.808;7.478;2023-02-23T08:05:27;100823.00;;;9.70
12854;BMP180;6495;51.808;7.478;2023-02-23T08:07:57;100829.00;;;9.80
12854;BMP180;6495;51.808;7.478;2023-02-23T08:10:25;100816.00;;;9.70
12854;BMP180;6495;51.808;7.478;2023-02-23T08:12:53;100826.00;;;9.70
12854;BMP180;6495;51.808;7.478;2023-02-23T08:15:22;100821.00;;;9.70
12854;BMP180;6495;51.808;7.478;2023-02-23T08:17:52;100828.00;;;9.70
12854;BMP180;6495;51.808;7.478;2023-02-23T08:20:20;100833.00;;;9.70
12854;BMP180;6495;51.808;7.478;2023-02-23T08:22:52;100837.00;;;9.70
12854;BMP180;6495;51.808;7.478;2023-02-23T08:25:20;100844.00;;;9.70
12854;BMP180;6495;51.808;7.478;2023-02-23T08:27:50;100838.00;;;9.70
12854;BMP180;6495;51.808;7.478;2023-02-23T08:30:21;100836.00;;;9.70
12854;BMP180;6495;51.808;7.478;2023-02-23T08:32:49;100852.00;;;9.70
12854;BMP180;6495;51.808;7.478;2023-02-23T08:35:19;100844.00;;;9.70
12854;BMP180;6495;51.808;7.478;2023-02-23T08:37:47;100843.00;;;9.70
12854;BMP180;6495;51.808;7.478;2023-02-23T08:40:16;100847.00;;;9.70
12854;BMP180;6495;51.808;7.478;2023-02-23T08:42:44;100844.00;;;9.70
12854;BMP180;6495;51.808;7.478;2023-02-23T08:45:12;100852.00;;;9.70
12854;BMP180;6495;51.808;7.478;2023-02-23T08:47:40;100848.00;;;9.60
12854;BMP180;6495;51.808;7.478;2023-02-23T08:50:11;100853.00;;;9.60
12854;BMP180;6495;51.808;7.478;2023-02-23T08:52:41;100860.00;;;9.60
12854;BMP180;6495;51.808;7.478;2023-02-23T08:55:09;100861.00;;;9.70
12854;BMP180;6495;51.808;7.478;2023-02-23T08:57:39;100864.00;;;9.70
12854;BMP180;6495;51.808;7.478;2023-02-23T09:00:09;100860.00;;;9.70
12854;BMP180;6495;51.808;7.478;2023-02-23T09:02:40;100861.00;;;9.70
12854;BMP180;6495;51.808;7.478;2023-02-23T09:05:09;100856.00;;;9.70
12854;BMP180;6495;51.808;7.478;2023-02-23T09:07:40;100862.00;;;9.70
12854;BMP180;6495;51.808;7.478;2023-02-23T09:10:13;100865.00;;;9.70
12854;BMP180;6495;51.808;7.478;2023-02-23T09:12:42;100869.00;;;9.70
12854;BMP180;6495;51.808;7.478;2023-02-23T09:15:10;100867.00;;;9.80
12854;BMP180;6495;51.808;7.478;2023-02-23T09:17:39;100865.00;;;9.80
12854;BMP180;6495;51.808;7.478;2023-02-23T09:20:13;100868.00;;;9.80
12854;BMP180;6495;51.808;7.478;2023-02-23T09:22:43;100867.00;;;9.90
12854;BMP180;6495;51.808;7.478;2023-02-23T09:25:14;100872.00;;;9.90
12854;BMP180;6495;51.808;7.478;2023-02-23T09:27:45;100872.00;;;9.90
12854;BMP180;6495;51.808;7.478;2023-02-23T09:30:15;100873.00;;;9.90
12854;BMP180;6495;51.808;7.478;2023-02-23T09:32:49;100869.00;;;9.90
12854;BMP180;6495;51.808;7.478;2023-02-23T09:35:21;100872.00;;;9.90
12854;BMP180;6495;51.808;7.478;2023-02-23T09:37:54;100869.00;;;9.90
12854;BMP180;6495;51.808;7.478;2023-02-23T09:40:26;100869.00;;;9.90
12854;BMP180;6495;51.808;7.478;2023-02-23T09:43:02;100882.00;;;9.90
12854;BMP180;6495;51.808;7.478;2023-02-23T09:45:38;100876.00;;;9.90
12854;BMP180;6495;51.808;7.478;2023-02-23T09:48:16;100886.00;;;9.90
12854;BMP180;6495;51.808;7.478;2023-02-23T09:50:49;100883.00;;;9.90
12854;BMP180;6495;51.808;7.478;2023-02-23T09:53:39;100890.00;;;9.90
12854;BMP180;6495;51.808;7.478;2023-02-23T09:56:15;100890.00;;;9.80
12854;BMP180;6495;51.808;7.478;2023-02-23T09:58:45;100890.00;;;9.80
12854;BMP180;6495;51.808;7.478;2023-02-23T10:01:53;100894.00;;;9.80
12854;BMP180;6495;51.808;7.478;2023-02-23T10:04:29;100889.00;;;9.80
12854;BMP180;6495;51.808;7.478;2023-02-23T10:07:05;100895.00;;;9.80
12854;BMP180;6495;51.808;7.478;2023-02-23T10:10:04;100893.00;;;9.80
12854;BMP180;6495;51.808;7.478;2023-02-23T10:12:47;100901.00;;;9.80
12854;BMP180;6495;51.808;7.478;2023-02-23T10:15:26;100907.00;;;9.80
12854;BMP180;6495;51.808;7.478;2023-02-23T10:18:11;100908.00;;;9.80
12854;BMP180;6495;51.808;7.478;2023-02-23T10:20:50;100907.00;;;9.80
12854;BMP180;6495;51.808;7.478;2023-02-23T10:23:26;100912.00;;;9.80
12854;BMP180;6495;51.808;7.478;2023-02-23T10:26:01;100908.00;;;9.80
12854;BMP180;6495;51.808;7.478;2023-02-23T10:28:35;100904.00;;;9.80
12854;BMP180;6495;51.808;7.478;2023-02-23T10:31:22;100907.00;;;9.70
12854;BMP180;6495;51.808;7.478;2023-02-23T10:33:56;100908.00;;;9.70
12854;BMP180;6495;51.808;7.478;2023-02-23T10:36:35;100905.00;;;9.70
12854;BMP180;6495;51.808;7.478;2023-02-23T10:39:07;100913.00;;;9.70
12854;BMP180;6495;51.808;7.478;2023-02-23T10:41:38;100907.00;;;9.70
12854;BMP180;6495;51.808;7.478;2023-02-23T10:44:17;100909.00;;;9.70
12854;BMP180;6495;51.808;7.478;2023-02-23T10:46:53;100918.00;;;9.60
12854;BMP180;6495;51.808;7.478;2023-02-23T10:49:28;100915.00;;;9.60
12854;BMP180;6495;51.808;7.478;2023-02-23T10:51:59;100916.00;;;9.60
12854;BMP180;6495;51.808;7.478;2023-02-23T10:54:41;100915.00;;;9.60
12854;BMP180;6495;51.808;7.478;2023-02-23T10:57:25;100917.00;;;9.60
12854;BMP180;6495;51.808;7.478;2023-02-23T11:00:24;100919.00;;;9.60
12854;BMP180;6495;51.808;7.478;2023-02-23T11:03:00;100917.00;;;9.60
12854;BMP180;6495;51.808;7.478;2023-02-23T11:05:35;100916.00;;;9.60
12854;BMP180;6495;51.808;7.478;2023-02-23T11:08:19;100913.00;;;9.60
12854;BMP180;6495;51.808;7.478;2023-02-23T11:11:05;100918.00;;;9.60
12854;BMP180;6495;51.808;7.478;2023-02-23T11:13:41;100915.00;;;9.60
12854;BMP180;6495;51.808;7.478;2023-02-23T11:16:13;100918.00;;;9.50
12854;BMP180;6495;51.808;7.478;2023-02-23T11:18:51;100926.00;;;9.50
12854;BMP180;6495;51.808;7.478;2023-02-23T11:21:25;100913.00;;;9.50
12854;BMP180;6495;51.808;7.478;2023-02-23T11:23:58;100911.00;;;9.50
12854;BMP180;6495;51.808;7.478;2023-02-23T11:26:36;100916.00;;;9.50
12854;BMP180;6495;51.808;7.478;2023-02-23T11:29:19;100916.00;;;9.50
12854;BMP180;6495;51.808;7.478;2023-02-23T11:31:51;100913.00;;;9.50
12854;BMP180;6495;51.808;7.478;2023-02-23T11:34:28;100915.00;;;9.50
12854;BMP180;6495;51.808;7.478;2023-02-23T11:37:03;100912.00;;;9.50
12854;BMP180;6495;51.808;7.478;2023-02-23T11:39:33;100910.00;;;9.50
12854;BMP180;6495;51.808;7.478;2023-02-23T11:42:20;100917.00;;;9.50
12854;BMP180;6495;51.808;7.478;2023-02-23T11:45:04;100914.00;;;9.50
12854;BMP180;6495;51.808;7.478;2023-02-23T11:47:38;100919.00;;;9.50
12854;BMP180;6495;51.808;7.478;2023-02-23T11:50:21;100912.00;;;9.60
12854;BMP180;6495;51.808;7.478;2023-02-23T11:52:56;100903.00;;;9.50
12854;BMP180;6495;51.808;7.478;2023-02-23T11:55:28;100907.00;;;9.50
12854;BMP180;6495;51.808;7.478;2023-02-23T11:58:10;100901.00;;;9.60
12854;BMP180;6495;51.808;7.478;2023-02-23T12:00:55;100904.00;;;9.60
12854;BMP180;6495;51.808;7.478;2023-02-23T12:03:26;100893.00;;;9.60
12854;BMP180;6495;51.808;7.478;2023-02-23T12:05:57;100898.00;;;9.50
12854;BMP180;6495;51.808;7.478;2023-02-23T12:08:38;100892.00;;;9.50
12854;BMP180;6495;51.808;7.478;2023-02-23T12:11:13;100892.00;;;9.60
12854;BMP180;6495;51.808;7.478;2023-02-23T12:13:48;100892.00;;;9.60
12854;BMP180;6495;51.808;7.478;2023-02-23T12:16:23;100888.00;;;9.60
12854;BMP180;6495;51.808;7.478;2023-02-23T12:18:58;100896.00;;;9.60
12854;BMP180;6495;51.808;7.478;2023-02-23T12:21:34;100899.00;;;9.60
12854;BMP180;6495;51.808;7.478;2023-02-23T12:24:21;100890.00;;;9.70
12854;BMP180;6495;51.808;7.478;2023-02-23T12:26:55;100901.00;;;9.70
12854;BMP180;6495;51.808;7.478;2023-02-23T12:29:32;100907.00;;;9.70
12854;BMP180;6495;51.808;7.478;2023-02-23T12:32:13;100899.00;;;9.70
12854;BMP180;6495;51.808;7.478;2023-02-23T12:34:50;100912.00;;;9.70
12854;BMP180;6495;51.808;7.478;2023-02-23T12:37:35;100919.00;;;9.70
12854;BMP180;6495;51.808;7.478;2023-02-23T12:40:14;100912.00;;;9.70
12854;BMP180;6495;51.808;7.478;2023-02-23T12:42:57;100910.00;;;9.70
12854;BMP180;6495;51.808;7.478;2023-02-23T12:45:34;100914.00;;;9.60
12854;BMP180;6495;51.808;7.478;2023-02-23T12:48:17;100910.00;;;9.60
12854;BMP180;6495;51.808;7.478;2023-02-23T12:50:55;100910.00;;;9.60
12854;BMP180;6495;51.808;7.478;2023-02-23T12:53:30;100906.00;;;9.60
12854;BMP180;6495;51.808;7.478;2023-02-23T12:56:22;100909.00;;;9.70
12854;BMP180;6495;51.808;7.478;2023-02-23T12:59:09;100906.00;;;9.60
12854;BMP180;6495;51.808;7.478;2023-02-23T13:01:49;100904.00;;;9.60
12854;BMP180;6495;51.808;7.478;2023-02-23T13:04:56;100914.00;;;9.60
12854;BMP180;6495;51.808;7.478;2023-02-23T13:07:40;100910.00;;;9.60
12854;BMP180;6495;51.808;7.478;2023-02-23T13:10:19;100904.00;;;9.50
12854;BMP180;6495;51.808;7.478;2023-02-23T13:12:59;100909.00;;;9.50
12854;BMP180;6495;51.808;7.478;2023-02-23T13:15:49;100909.00;;;9.50
12854;BMP180;6495;51.808;7.478;2023-02-23T13:18:27;100913.00;;;9.50
12854;BMP180;6495;51.808;7.478;2023-02-23T13:21:04;100909.00;;;9.50
12854;BMP180;6495;51.808;7.478;2023-02-23T13:23:40;100906.00;;;9.50
12854;BMP180;6495;51.808;7.478;2023-02-23T13:26:20;100924.00;;;9.50
12854;BMP180;6495;51.808;7.478;2023-02-23T13:28:57;100914.00;;;9.50
12854;BMP180;6495;51.808;7.478;2023-02-23T13:31:30;100921.00;;;9.50
12854;BMP180;6495;51.808;7.478;2023-02-23T13:34:03;100925.00;;;9.50
12854;BMP180;6495;51.808;7.478;2023-02-23T13:36:34;100933.00;;;9.50
12854;BMP180;6495;51.808;7.478;2023-02-23T13:39:30;100925.00;;;9.50
12854;BMP180;6495;51.808;7.478;2023-02-23T13:42:25;100931.00;;;9.50
12854;BMP180;6495;51.808;7.478;2023-02-23T13:45:19;100926.00;;;9.50
12854;BMP180;6495;51.808;7.478;2023-02-23T13:47:55;100927.00;;;9.50
12854;BMP180;6495;51.808;7.478;2023-02-23T13:50:29;100932.00;;;9.50
12854;BMP180;6495;51.808;7.478;2023-02-23T13:53:05;100924.00;;;9.50
12854;BMP180;6495;51.808;7.478;2023-02-23T13:55:45;100925.00;;;9.50
12854;BMP180;6495;51.808;7.478;2023-02-23T13:58:23;100928.00;;;9.40
12854;BMP180;6495;51.808;7.478;2023-02-23T14:01:07;100937.00;;;9.40
12854;BMP180;6495;51.808;7.478;2023-02-23T14:03:46;100933.00;;;9.30
12854;BMP180;6495;51.808;7.478;2023-02-23T14:06:18;100932.00;;;9.30
12854;BMP180;6495;51.808;7.478;2023-02-23T14:08:55;100931.00;;;9.30
12854;BMP180;6495;51.808;7.478;2023-02-23T14:11:43;100929.00;;;9.30
12854;BMP180;6495;51.808;7.478;2023-02-23T14:14:39;100940.00;;;9.20
12854;BMP180;6495;51.808;7.478;2023-02-23T14:17:37;100934.00;;;9.20
12854;BMP180;6495;51.808;7.478;2023-02-23T14:20:19;100940.00;;;9.20
12854;BMP180;6495;51.808;7.478;2023-02-23T14:29:22;100941.00;;;9.20
12854;BMP180;6495;51.808;7.478;2023-02-23T14:32:26;100944.00;;;9.30
12854;BMP180;6495;51.808;7.478;2023-02-23T14:34:57;100943.00;;;9.30
12854;BMP180;6495;51.808;7.478;2023-02-23T14:37:30;100932.00;;;9.30
12854;BMP180;6495;51.808;7.478;2023-02-23T14:40:10;100931.00;;;9.40
12854;BMP180;6495;51.808;7.478;2023-02-23T14:42:46;100935.00;;;9.40
12854;BMP180;6495;51.808;7.478;2023-02-23T14:45:20;100933.00;;;9.40
12854;BMP180;6495;51.808;7.478;2023-02-23T14:47:57;100934.00;;;9.40
12854;BMP180;6495;51.808;7.478;2023-02-23T14:50:31;100923.00;;;9.40
12854;BMP180;6495;51.808;7.478;2023-02-23T14:53:01;100928.00;;;9.40
12854;BMP180;6495;51.808;7.478;2023-02-23T14:55:31;100927.00;;;9.40
12854;BMP180;6495;51.808;7.478;2023-02-23T14:58:17;100933.00;;;9.40
12854;BMP180;6495;51.808;7.478;2023-02-23T15:00:48;100937.00;;;9.40
12854;BMP180;6495;51.808;7.478;2023-02-23T15:03:18;100936.00;;;9.40
12854;BMP180;6495;51.808;7.478;2023-02-23T15:05:54;100930.00;;;9.40
12854;BMP180;6495;51.808;7.478;2023-02-23T15:08:26;100934.00;;;9.30
12854;BMP180;6495;51.808;7.478;2023-02-23T15:11:02;100940.00;;;9.30
12854;BMP180;6495;51.808;7.478;2023-02-23T15:13:34;100945.00;;;9.30